Time;durP1;ratioP1;P1;durP2;ratioP2;P2;SDS_P1;SDS_P2;PMS_P1;PMS_P2;Temp;Humidity;BMP_temperature;BMP_pressure;BME280_temperature;BME280_humidity;BME280_pressure;Samples;Min_cycle;Max_cycle;Signal;HPM_P1;HPM_P2
2022/06/11 00:01:36;;;;;;;;;;;15.00;99.90;;;;;;4903810;29;19938;-79
2022/06/11 00:04:07;;;;;;;;;;;14.90;99.90;;;;;;4876372;29;19931;-80
2022/06/11 00:06:39;;;;;;;;;;;14.90;99.90;;;;;;4885234;29;19931;-79
2022/06/11 00:09:08;;;;;;;;;;;14.90;99.90;;;;;;4899989;29;19938;-77
2022/06/11 00:11:36;;;;;;;;;;;14.90;99.90;;;;;;4902361;29;19942;-78
2022/06/11 00:14:04;;;;;;;;;;;14.90;99.90;;;;;;4906738;29;19928;-78
2022/06/11 00:16:32;;;;;;;;;;;13.70;99.90;;;;;;4886152;29;19932;-80
2022/06/11 00:19:02;;;;;;;;;;;14.90;99.90;;;;;;4901649;29;19936;-78
2022/06/11 00:21:32;;;;;;;;;;;14.80;99.90;;;;;;4899262;29;20144;-78
2022/06/11 00:24:01;;;;;;;;;;;13.30;99.90;;;;;;4889890;29;19934;-78
2022/06/11 00:26:33;;;;;;;;;;;14.80;99.90;;;;;;4868209;29;20263;-79
2022/06/11 00:29:02;;;;;;;;;;;15.00;99.90;;;;;;4870945;29;19944;-79
2022/06/11 00:31:31;;;;;;;;;;;14.80;99.90;;;;;;4892618;29;19923;-79
2022/06/11 00:34:02;;;;;;;;;;;14.80;99.90;;;;;;4902144;29;19927;-78
2022/06/11 00:36:31;;;;;;;;;;;14.80;99.90;;;;;;4877673;29;19927;-78
2022/06/11 00:38:59;;;;;;;;;;;14.70;99.90;;;;;;4901075;29;19928;-77
2022/06/11 00:41:29;;;;;;;;;;;14.70;99.90;;;;;;4882655;29;20361;-79
2022/06/11 00:43:57;;;;;;;;;;;14.70;99.90;;;;;;4892729;29;19928;-78
2022/06/11 00:46:33;;;;;;;;;;;14.70;99.90;;;;;;4892748;29;20286;-79
2022/06/11 00:49:04;;;;;;;;;;;14.70;99.90;;;;;;4894172;29;19932;-79
2022/06/11 00:51:32;;;;;;;;;;;14.70;99.90;;;;;;4880928;29;19932;-82
2022/06/11 00:54:10;;;;;;;;;;;14.60;99.90;;;;;;4894200;29;19928;-83
2022/06/11 00:56:41;;;;;;;;;;;14.60;99.90;;;;;;4886603;29;19934;-79
2022/06/11 00:59:15;;;;;;;;;;;14.60;99.90;;;;;;4878495;29;20088;-77
2022/06/11 01:01:43;;;;;;;;;;;14.60;99.90;;;;;;4891337;29;20801;-77
2022/06/11 01:04:41;;;;;;;;;;;14.60;99.90;;;;;;4861531;29;19932;-78
2022/06/11 01:07:09;;;;;;;;;;;14.50;99.90;;;;;;4875479;29;19932;-79
2022/06/11 01:09:42;;;;;;;;;;;14.50;99.90;;;;;;4891402;29;19928;-79
2022/06/11 01:12:16;;;;;;;;;;;14.50;99.90;;;;;;4892199;29;19928;-81
2022/06/11 01:14:50;;;;;;;;;;;14.40;99.90;;;;;;4872685;29;19936;-80
2022/06/11 01:17:25;;;;;;;;;;;14.40;99.90;;;;;;4891793;29;19942;-79
2022/06/11 01:19:59;;;;;;;;;;;14.40;99.90;;;;;;4875593;29;19935;-78
2022/06/11 01:22:47;;;;;;;;;;;14.10;99.90;;;;;;4891798;29;19932;-78
2022/06/11 01:25:30;;;;;;;;;;;14.20;99.90;;;;;;4892290;29;19939;-81
2022/06/11 01:28:17;;;;;;;;;;;14.40;99.90;;;;;;4874056;29;19942;-80
2022/06/11 01:30:50;;;;;;;;;;;14.30;99.90;;;;;;4858126;29;19935;-80
2022/06/11 01:33:22;;;;;;;;;;;14.30;99.90;;;;;;4885939;29;20433;-81
2022/06/11 01:36:03;;;;;;;;;;;14.30;99.90;;;;;;4889465;29;19952;-81
2022/06/11 01:38:40;;;;;;;;;;;14.30;99.90;;;;;;4900229;29;19932;-78
2022/06/11 01:41:23;;;;;;;;;;;14.30;99.90;;;;;;4879408;29;19960;-78
2022/06/11 01:43:53;;;;;;;;;;;14.30;99.90;;;;;;4888929;29;19928;-78
2022/06/11 01:46:24;;;;;;;;;;;14.30;99.90;;;;;;4858683;29;19927;-78
2022/06/11 01:48:57;;;;;;;;;;;14.20;99.90;;;;;;4886928;29;19947;-78
2022/06/11 01:51:44;;;;;;;;;;;14.20;99.90;;;;;;4873627;29;19942;-79
2022/06/11 01:54:28;;;;;;;;;;;14.20;99.90;;;;;;4878427;29;19938;-78
2022/06/11 01:57:08;;;;;;;;;;;14.20;99.90;;;;;;4878522;29;20014;-79
2022/06/11 01:59:40;;;;;;;;;;;14.10;99.90;;;;;;4874530;29;19938;-79
2022/06/11 02:02:25;;;;;;;;;;;14.10;99.90;;;;;;4906012;29;19928;-79
2022/06/11 02:05:03;;;;;;;;;;;14.10;99.90;;;;;;4873549;29;21182;-78
2022/06/11 02:07:41;;;;;;;;;;;14.10;99.90;;;;;;4877169;29;20283;-78
2022/06/11 02:10:12;;;;;;;;;;;14.00;99.90;;;;;;4878849;29;19931;-78
2022/06/11 02:12:43;;;;;;;;;;;14.00;99.90;;;;;;4875077;29;19927;-78
2022/06/11 02:15:10;;;;;;;;;;;14.00;99.90;;;;;;4894862;29;19936;-80
2022/06/11 02:17:41;;;;;;;;;;;14.00;99.90;;;;;;4879429;29;19935;-77
2022/06/11 02:20:17;;;;;;;;;;;14.00;99.90;;;;;;4879105;29;19932;-78
2022/06/11 02:22:51;;;;;;;;;;;14.00;99.90;;;;;;4876258;29;19928;-79
2022/06/11 02:25:24;;;;;;;;;;;14.00;99.90;;;;;;4892912;29;19928;-81
2022/06/11 02:27:58;;;;;;;;;;;14.00;99.90;;;;;;4894481;29;19924;-81
2022/06/11 02:30:28;;;;;;;;;;;13.90;99.90;;;;;;4894309;29;19938;-83
2022/06/11 02:32:57;;;;;;;;;;;13.90;99.90;;;;;;4879586;29;19931;-86
2022/06/11 02:35:28;;;;;;;;;;;13.90;99.90;;;;;;4910886;29;19924;-82
2022/06/11 02:37:55;;;;;;;;;;;13.90;99.90;;;;;;4894096;29;19935;-78
2022/06/11 02:40:27;;;;;;;;;;;13.90;99.90;;;;;;4859547;29;19943;-77
2022/06/11 02:42:55;;;;;;;;;;;13.80;99.90;;;;;;4900130;29;19928;-77
2022/06/11 02:45:25;;;;;;;;;;;13.80;99.90;;;;;;4925611;29;19942;-80
2022/06/11 02:47:53;;;;;;;;;;;13.80;99.90;;;;;;4901883;29;19936;-77
2022/06/11 02:50:23;;;;;;;;;;;13.80;99.90;;;;;;4893870;29;19999;-79
2022/06/11 02:52:51;;;;;;;;;;;13.80;99.90;;;;;;4909018;29;19928;-78
2022/06/11 02:55:21;;;;;;;;;;;13.70;99.90;;;;;;4904697;29;19927;-80
2022/06/11 02:57:49;;;;;;;;;;;13.70;99.90;;;;;;4889781;29;20081;-78
2022/06/11 03:00:20;;;;;;;;;;;13.70;99.90;;;;;;4908918;29;19938;-78
2022/06/11 03:02:49;;;;;;;;;;;13.70;99.90;;;;;;4902813;29;19942;-78
2022/06/11 03:05:18;;;;;;;;;;;13.70;99.90;;;;;;4906843;29;19928;-78
2022/06/11 03:07:47;;;;;;;;;;;13.60;99.90;;;;;;4911984;29;19931;-78
2022/06/11 03:10:17;;;;;;;;;;;13.60;99.90;;;;;;4909160;29;19931;-78
2022/06/11 03:12:45;;;;;;;;;;;13.60;99.90;;;;;;4911134;29;19934;-78
2022/06/11 03:15:14;;;;;;;;;;;13.50;99.90;;;;;;4892695;29;19951;-81
2022/06/11 03:17:43;;;;;;;;;;;13.50;99.90;;;;;;4904573;29;19942;-77
2022/06/11 03:20:13;;;;;;;;;;;13.50;99.90;;;;;;4907460;29;19927;-83
2022/06/11 03:22:42;;;;;;;;;;;13.90;99.90;;;;;;4900100;29;19927;-82
2022/06/11 03:25:11;;;;;;;;;;;13.50;99.90;;;;;;4902355;29;19928;-79
2022/06/11 03:27:40;;;;;;;;;;;13.40;99.90;;;;;;4902136;29;19943;-81
2022/06/11 03:30:10;;;;;;;;;;;13.40;99.90;;;;;;4909405;29;19928;-78
2022/06/11 03:32:38;;;;;;;;;;;13.40;99.90;;;;;;4573779;29;10000592;-78
2022/06/11 03:35:06;;;;;;;;;;;13.40;99.90;;;;;;4890641;29;19928;-81
2022/06/11 03:37:34;;;;;;;;;;;13.40;99.90;;;;;;4905190;29;19928;-80
2022/06/11 03:40:02;;;;;;;;;;;13.40;99.90;;;;;;4894331;29;19932;-78
2022/06/11 03:42:30;;;;;;;;;;;13.30;99.90;;;;;;4889982;29;19938;-78
2022/06/11 03:44:58;;;;;;;;;;;13.30;99.90;;;;;;4888872;29;19931;-78
2022/06/11 03:47:26;;;;;;;;;;;13.30;99.90;;;;;;4907098;29;19935;-79
2022/06/11 03:49:53;;;;;;;;;;;13.50;99.90;;;;;;4904136;29;19927;-78
2022/06/11 03:52:23;;;;;;;;;;;13.20;99.90;;;;;;4907921;29;19928;-78
2022/06/11 03:54:54;;;;;;;;;;;13.30;99.90;;;;;;4882348;29;20325;-82
2022/06/11 03:57:23;;;;;;;;;;;13.20;99.90;;;;;;4880716;29;19928;-80
2022/06/11 03:59:51;;;;;;;;;;;13.20;99.90;;;;;;4900963;29;19932;-78
2022/06/11 04:02:19;;;;;;;;;;;13.20;99.90;;;;;;4897235;29;19938;-77
2022/06/11 04:04:47;;;;;;;;;;;12.30;99.90;;;;;;4885561;29;19932;-79
2022/06/11 04:07:15;;;;;;;;;;;13.20;99.90;;;;;;4904158;29;19932;-77
2022/06/11 04:09:43;;;;;;;;;;;13.10;99.90;;;;;;4893840;29;19928;-77
2022/06/11 04:12:15;;;;;;;;;;;13.10;99.90;;;;;;4891786;29;20010;-77
2022/06/11 04:14:46;;;;;;;;;;;13.10;99.90;;;;;;4908511;29;19931;-80
2022/06/11 04:17:17;;;;;;;;;;;13.10;99.90;;;;;;4898782;29;19935;-80
2022/06/11 04:19:46;;;;;;;;;;;13.20;99.90;;;;;;4898861;29;20156;-80
2022/06/11 04:22:15;;;;;;;;;;;13.10;99.90;;;;;;4907478;29;19938;-79
2022/06/11 04:24:44;;;;;;;;;;;13.20;99.90;;;;;;4895035;29;19936;-77
2022/06/11 04:27:14;;;;;;;;;;;12.10;99.90;;;;;;4895461;29;19928;-78
2022/06/11 04:29:43;;;;;;;;;;;13.20;99.90;;;;;;4897958;29;19934;-78
2022/06/11 04:32:15;;;;;;;;;;;13.10;99.90;;;;;;4899191;29;19935;-78
2022/06/11 04:34:44;;;;;;;;;;;13.20;99.90;;;;;;4907932;29;19927;-82
2022/06/11 04:37:14;;;;;;;;;;;13.20;99.90;;;;;;4907826;29;19927;-80
2022/06/11 04:39:43;;;;;;;;;;;13.20;99.90;;;;;;4903371;29;19939;-80
2022/06/11 04:42:12;;;;;;;;;;;13.30;99.90;;;;;;4877567;29;19934;-78
2022/06/11 04:44:41;;;;;;;;;;;13.40;99.90;;;;;;4901698;29;19935;-81
2022/06/11 04:47:11;;;;;;;;;;;13.30;99.90;;;;;;4905270;29;19937;-78
2022/06/11 04:49:39;;;;;;;;;;;13.40;99.90;;;;;;4901098;29;19928;-77
2022/06/11 04:52:08;;;;;;;;;;;13.40;99.90;;;;;;4903863;29;19935;-78
2022/06/11 04:54:36;;;;;;;;;;;13.50;99.90;;;;;;4904489;29;20295;-77
2022/06/11 04:57:04;;;;;;;;;;;13.50;99.90;;;;;;4896883;29;19947;-77
2022/06/11 04:59:32;;;;;;;;;;;13.60;99.90;;;;;;4878830;29;20252;-78
2022/06/11 05:02:01;;;;;;;;;;;13.60;99.90;;;;;;4905129;29;19927;-77
2022/06/11 05:04:29;;;;;;;;;;;13.70;99.90;;;;;;4890257;29;19932;-78
2022/06/11 05:06:57;;;;;;;;;;;13.70;99.90;;;;;;4903448;29;19927;-77
2022/06/11 05:09:28;;;;;;;;;;;13.70;99.90;;;;;;4893473;29;19943;-81
2022/06/11 05:11:57;;;;;;;;;;;13.80;99.90;;;;;;4901112;29;19938;-78
2022/06/11 05:14:25;;;;;;;;;;;13.80;99.90;;;;;;4904218;29;20370;-79
2022/06/11 05:16:58;;;;;;;;;;;13.80;99.90;;;;;;4877018;29;19924;-79
2022/06/11 05:19:27;;;;;;;;;;;13.90;99.90;;;;;;4902565;29;19931;-77
2022/06/11 05:21:59;;;;;;;;;;;13.90;99.90;;;;;;4902326;29;19941;-77
2022/06/11 05:24:29;;;;;;;;;;;14.00;99.90;;;;;;4906832;29;19927;-78
2022/06/11 05:27:02;;;;;;;;;;;14.00;99.90;;;;;;4897318;29;19927;-78
2022/06/11 05:29:35;;;;;;;;;;;14.10;99.90;;;;;;4908711;29;20571;-81
2022/06/11 05:32:05;;;;;;;;;;;14.20;99.90;;;;;;4903124;29;20006;-79
2022/06/11 05:34:33;;;;;;;;;;;14.20;99.90;;;;;;4906789;29;19938;-77
2022/06/11 05:37:02;;;;;;;;;;;14.20;99.90;;;;;;4893047;29;20115;-79
2022/06/11 05:39:30;;;;;;;;;;;12.80;99.90;;;;;;4902828;29;19935;-79
2022/06/11 05:41:58;;;;;;;;;;;14.40;99.90;;;;;;4903524;29;19938;-81
2022/06/11 05:44:26;;;;;;;;;;;14.40;99.90;;;;;;4901539;29;19958;-78
2022/06/11 05:46:55;;;;;;;;;;;15.00;99.90;;;;;;4902115;29;19928;-78
2022/06/11 05:49:25;;;;;;;;;;;14.60;99.90;;;;;;4910376;29;19927;-77
2022/06/11 05:51:57;;;;;;;;;;;14.50;99.90;;;;;;4903906;29;19942;-78
2022/06/11 05:54:55;;;;;;;;;;;14.70;99.90;;;;;;4902047;29;19938;-77
2022/06/11 05:57:26;;;;;;;;;;;14.70;99.90;;;;;;4909738;29;19947;-78
2022/06/11 05:59:58;;;;;;;;;;;14.80;99.90;;;;;;4915460;29;19954;-77
2022/06/11 06:02:28;;;;;;;;;;;14.90;99.90;;;;;;4910834;29;19938;-78
2022/06/11 06:04:56;;;;;;;;;;;14.90;99.90;;;;;;4899439;29;19951;-77
2022/06/11 06:07:26;;;;;;;;;;;15.00;99.90;;;;;;4905927;29;19932;-78
2022/06/11 06:09:53;;;;;;;;;;;15.00;99.90;;;;;;4901648;29;19916;-78
2022/06/11 06:12:22;;;;;;;;;;;15.10;99.90;;;;;;4903305;29;19928;-79
2022/06/11 06:14:50;;;;;;;;;;;15.10;99.90;;;;;;4906341;29;19935;-78
2022/06/11 06:17:18;;;;;;;;;;;15.40;99.90;;;;;;4886332;29;19931;-78
2022/06/11 06:20:01;;;;;;;;;;;15.20;99.90;;;;;;4920754;29;19934;-81
2022/06/11 06:22:29;;;;;;;;;;;15.30;99.90;;;;;;4900949;29;19932;-78
2022/06/11 06:25:04;;;;;;;;;;;15.30;99.90;;;;;;4909718;29;19934;-78
2022/06/11 06:27:31;;;;;;;;;;;15.40;99.90;;;;;;4923249;29;19931;-79
2022/06/11 06:30:01;;;;;;;;;;;15.80;99.90;;;;;;4906371;29;19931;-78
2022/06/11 06:32:28;;;;;;;;;;;15.50;99.90;;;;;;4922446;29;19932;-78
2022/06/11 06:34:59;;;;;;;;;;;15.60;99.90;;;;;;4910230;29;19946;-80
2022/06/11 06:37:33;;;;;;;;;;;15.60;99.90;;;;;;4908417;29;19928;-79
2022/06/11 06:40:03;;;;;;;;;;;15.70;99.90;;;;;;4909289;29;19928;-78
2022/06/11 06:42:34;;;;;;;;;;;15.70;99.90;;;;;;4765401;29;3765305;-80
2022/06/11 06:45:02;;;;;;;;;;;15.70;99.90;;;;;;4907943;29;19927;-79
2022/06/11 06:47:30;;;;;;;;;;;15.80;99.90;;;;;;4888844;29;19997;-81
2022/06/11 06:49:58;;;;;;;;;;;15.80;99.90;;;;;;4891901;29;19931;-78
2022/06/11 06:52:26;;;;;;;;;;;15.90;99.90;;;;;;4894030;29;19965;-78
2022/06/11 06:54:54;;;;;;;;;;;15.90;99.90;;;;;;4910812;29;19928;-78
2022/06/11 06:57:23;;;;;;;;;;;16.00;99.90;;;;;;4903828;29;19935;-80
2022/06/11 06:59:52;;;;;;;;;;;16.00;99.90;;;;;;4897836;29;19928;-82
2022/06/11 07:02:20;;;;;;;;;;;16.10;99.90;;;;;;4890289;29;19931;-78
2022/06/11 07:04:49;;;;;;;;;;;16.10;99.90;;;;;;4890587;29;19932;-77
2022/06/11 07:07:17;;;;;;;;;;;16.10;99.90;;;;;;4876323;29;19927;-78
2022/06/11 07:09:52;;;;;;;;;;;16.20;99.90;;;;;;4907664;29;19927;-78
2022/06/11 07:12:23;;;;;;;;;;;16.30;99.90;;;;;;4892684;29;19931;-78
2022/06/11 07:14:50;;;;;;;;;;;16.40;99.90;;;;;;4884359;29;19928;-78
2022/06/11 07:17:19;;;;;;;;;;;16.50;99.90;;;;;;4907083;29;19934;-79
2022/06/11 07:19:52;;;;;;;;;;;16.50;99.90;;;;;;4895347;29;19942;-79
2022/06/11 07:22:25;;;;;;;;;;;16.60;99.90;;;;;;4910071;29;19932;-78
2022/06/11 07:25:01;;;;;;;;;;;15.10;99.90;;;;;;4891477;29;19927;-78
2022/06/11 07:27:34;;;;;;;;;;;16.90;99.90;;;;;;4893842;29;20148;-80
2022/06/11 07:30:09;;;;;;;;;;;16.80;99.90;;;;;;4907499;29;19942;-79
2022/06/11 07:32:39;;;;;;;;;;;16.80;99.90;;;;;;4890974;29;21337;-78
2022/06/11 07:35:14;;;;;;;;;;;16.90;99.90;;;;;;4877946;29;19934;-78
2022/06/11 07:37:43;;;;;;;;;;;16.90;99.90;;;;;;4893310;29;20026;-78
2022/06/11 07:40:21;;;;;;;;;;;16.90;99.90;;;;;;4889235;29;19942;-79
2022/06/11 07:42:51;;;;;;;;;;;17.00;99.90;;;;;;4866990;29;19927;-79
2022/06/11 07:45:19;;;;;;;;;;;17.10;99.90;;;;;;4918291;29;19946;-80
2022/06/11 07:47:56;;;;;;;;;;;17.20;99.90;;;;;;4917099;29;19950;-78
2022/06/11 07:50:26;;;;;;;;;;;17.20;99.60;;;;;;4894716;29;19942;-82
2022/06/11 07:52:55;;;;;;;;;;;17.30;99.80;;;;;;4891133;29;19936;-80
2022/06/11 07:55:23;;;;;;;;;;;17.30;99.40;;;;;;4887856;29;19931;-78
2022/06/11 07:57:51;;;;;;;;;;;17.40;99.10;;;;;;4920163;29;19935;-79
2022/06/11 08:00:21;;;;;;;;;;;17.40;98.90;;;;;;4885719;29;19947;-78
2022/06/11 08:02:50;;;;;;;;;;;17.50;99.00;;;;;;4892851;29;20443;-78
2022/06/11 08:05:19;;;;;;;;;;;17.60;98.30;;;;;;4914942;29;19934;-82
2022/06/11 08:07:51;;;;;;;;;;;18.30;98.60;;;;;;4902514;29;19958;-78
2022/06/11 08:10:20;;;;;;;;;;;17.80;98.50;;;;;;4874497;29;20060;-82
2022/06/11 08:12:48;;;;;;;;;;;17.80;98.70;;;;;;4911445;29;19932;-78
2022/06/11 08:15:16;;;;;;;;;;;17.90;98.30;;;;;;4893647;29;20349;-81
2022/06/11 08:17:43;;;;;;;;;;;18.00;98.10;;;;;;4907007;29;20600;-81
2022/06/11 08:20:21;;;;;;;;;;;18.10;97.90;;;;;;4894386;29;19938;-81
2022/06/11 08:22:50;;;;;;;;;;;18.10;97.50;;;;;;4909558;29;19935;-80
2022/06/11 08:25:20;;;;;;;;;;;18.20;97.50;;;;;;4911664;29;19932;-81
2022/06/11 08:27:50;;;;;;;;;;;18.20;97.30;;;;;;4915630;29;19946;-79
2022/06/11 08:30:23;;;;;;;;;;;18.10;97.30;;;;;;4913112;29;19931;-82
2022/06/11 08:32:58;;;;;;;;;;;18.40;97.40;;;;;;4892368;29;19935;-78
2022/06/11 08:35:29;;;;;;;;;;;18.50;97.00;;;;;;4915579;29;20380;-83
2022/06/11 08:37:59;;;;;;;;;;;17.30;96.80;;;;;;4901048;29;19927;-84
2022/06/11 08:40:28;;;;;;;;;;;18.60;96.90;;;;;;4889979;29;19931;-78
2022/06/11 08:43:02;;;;;;;;;;;18.60;96.70;;;;;;4915648;29;19935;-78
2022/06/11 08:45:38;;;;;;;;;;;18.60;96.50;;;;;;4914189;29;20309;-81
2022/06/11 08:48:23;;;;;;;;;;;18.60;96.30;;;;;;4885619;29;19928;-78
2022/06/11 08:51:12;;;;;;;;;;;18.60;95.90;;;;;;4892470;29;19951;-78
2022/06/11 08:53:40;;;;;;;;;;;18.60;95.80;;;;;;4912783;29;19911;-82
2022/06/11 08:56:23;;;;;;;;;;;18.90;95.90;;;;;;4881479;29;19936;-86
2022/06/11 08:58:51;;;;;;;;;;;18.80;95.20;;;;;;4895215;29;20317;-84
2022/06/11 09:04:52;;;;;;;;;;;19.20;94.80;;;;;;4883250;29;19946;-84
2022/06/11 09:07:42;;;;;;;;;;;19.10;94.70;;;;;;4914119;29;19928;-81
2022/06/11 09:10:25;;;;;;;;;;;19.20;94.60;;;;;;4902811;29;19961;-80
2022/06/11 09:13:13;;;;;;;;;;;19.20;94.60;;;;;;4914516;29;19942;-78
2022/06/11 09:16:09;;;;;;;;;;;19.30;94.60;;;;;;4907266;29;19927;-82
2022/06/11 09:18:44;;;;;;;;;;;19.30;94.50;;;;;;4905021;29;19938;-78
2022/06/11 09:21:14;;;;;;;;;;;19.40;93.90;;;;;;4895712;29;19927;-78
2022/06/11 09:23:54;;;;;;;;;;;19.40;94.00;;;;;;4918160;29;19935;-79
2022/06/11 09:26:28;;;;;;;;;;;19.60;94.00;;;;;;4915308;29;19947;-79
2022/06/11 09:29:04;;;;;;;;;;;19.50;94.30;;;;;;4917545;29;19935;-81
2022/06/11 09:31:37;;;;;;;;;;;19.60;94.20;;;;;;4882014;29;19934;-81
2022/06/11 09:34:15;;;;;;;;;;;19.70;93.90;;;;;;4915392;29;19939;-78
2022/06/11 09:36:49;;;;;;;;;;;19.80;93.00;;;;;;4914815;29;19935;-84
2022/06/11 09:39:37;;;;;;;;;;;19.80;93.00;;;;;;4916554;29;19951;-82
2022/06/11 09:42:14;;;;;;;;;;;19.80;93.10;;;;;;4893988;29;19928;-79
2022/06/11 09:44:54;;;;;;;;;;;20.00;92.50;;;;;;4881823;29;19931;-78
2022/06/11 09:47:32;;;;;;;;;;;20.00;92.60;;;;;;4895144;29;20305;-78
2022/06/11 09:50:30;;;;;;;;;;;20.00;92.20;;;;;;4898706;29;19928;-83
2022/06/11 09:53:18;;;;;;;;;;;19.20;91.80;;;;;;4863542;29;19932;-78
2022/06/11 09:55:50;;;;;;;;;;;19.90;91.80;;;;;;4870486;29;19931;-83
2022/06/11 09:58:20;;;;;;;;;;;20.00;91.90;;;;;;4886188;29;19966;-86
2022/06/11 10:00:59;;;;;;;;;;;20.00;92.10;;;;;;4899221;29;19927;-80
2022/06/11 10:03:31;;;;;;;;;;;20.10;92.20;;;;;;4896900;29;21318;-78
2022/06/11 10:06:03;;;;;;;;;;;20.10;92.50;;;;;;4868656;29;19942;-79
2022/06/11 10:08:52;;;;;;;;;;;20.00;92.50;;;;;;4874549;29;19927;-80
2022/06/11 10:11:29;;;;;;;;;;;20.10;92.50;;;;;;4889314;29;19936;-79
2022/06/11 10:14:28;;;;;;;;;;;20.10;91.80;;;;;;4881514;29;19953;-79
2022/06/11 10:16:50;;;;;;;;;;;20.10;91.70;;;;;;4875321;29;19942;-83
2022/06/11 10:22:58;;;;;;;;;;;20.30;91.10;;;;;;4955800;29;19941;-81
2022/06/11 10:25:55;;;;;;;;;;;20.30;91.50;;;;;;4930045;29;19941;-82
2022/06/11 10:28:33;;;;;;;;;;;20.20;91.40;;;;;;4961276;29;19927;-82
2022/06/11 10:31:12;;;;;;;;;;;20.20;91.50;;;;;;4948905;29;19937;-83
2022/06/11 10:34:01;;;;;;;;;;;20.30;91.90;;;;;;4947461;29;19934;-84
2022/06/11 10:36:31;;;;;;;;;;;20.50;91.60;;;;;;4948350;29;19942;-78
2022/06/11 10:39:11;;;;;;;;;;;20.70;90.30;;;;;;4946154;29;20581;-83
2022/06/11 10:41:48;;;;;;;;;;;20.80;89.70;;;;;;4948042;29;19937;-79
2022/06/11 10:44:27;;;;;;;;;;;20.80;89.20;;;;;;4946799;29;19934;-80
2022/06/11 10:46:59;;;;;;;;;;;20.90;88.90;;;;;;4948256;29;19934;-81
2022/06/11 10:49:27;;;;;;;;;;;21.10;89.50;;;;;;4950544;29;19934;-78
2022/06/11 10:51:59;;;;;;;;;;;21.20;89.60;;;;;;4961355;29;19927;-77
2022/06/11 10:54:30;;;;;;;;;;;21.50;90.00;;;;;;4943782;29;19931;-79
2022/06/11 10:57:04;;;;;;;;;;;21.70;88.60;;;;;;4941326;29;19934;-78
2022/06/11 10:59:34;;;;;;;;;;;21.80;87.90;;;;;;4942202;29;19926;-79
2022/06/11 11:02:08;;;;;;;;;;;21.70;87.60;;;;;;4963591;29;20296;-78
2022/06/11 11:04:53;;;;;;;;;;;21.60;88.00;;;;;;4948379;29;19930;-82
2022/06/11 11:07:24;;;;;;;;;;;21.40;88.90;;;;;;4945009;29;19927;-86
2022/06/11 11:09:58;;;;;;;;;;;21.20;88.10;;;;;;4960780;29;19934;-79
2022/06/11 11:12:42;;;;;;;;;;;21.10;88.60;;;;;;4945071;29;20289;-80
2022/06/11 11:15:14;;;;;;;;;;;21.20;88.60;;;;;;4925603;29;19946;-79
2022/06/11 11:17:49;;;;;;;;;;;21.20;87.50;;;;;;4920447;29;19942;-79
2022/06/11 11:20:30;;;;;;;;;;;21.20;87.20;;;;;;4929081;28;19927;-80
2022/06/11 11:23:27;;;;;;;;;;;21.20;87.10;;;;;;4931155;29;19935;-78
2022/06/11 11:26:06;;;;;;;;;;;21.30;87.10;;;;;;4922443;29;19948;-79
2022/06/11 11:28:41;;;;;;;;;;;21.40;86.80;;;;;;4938839;29;19937;-80
2022/06/11 11:31:22;;;;;;;;;;;21.70;86.50;;;;;;4928570;29;20878;-82
2022/06/11 11:34:47;;;;;;;;;;;21.90;86.40;;;;;;4949830;28;19935;-79
2022/06/11 11:37:16;;;;;;;;;;;22.20;84.60;;;;;;4945355;28;19926;-79
2022/06/11 11:39:55;;;;;;;;;;;22.30;84.20;;;;;;4948093;29;19934;-79
2022/06/11 11:42:34;;;;;;;;;;;22.40;83.10;;;;;;4934041;29;19930;-78
2022/06/11 11:45:31;;;;;;;;;;;22.50;84.50;;;;;;4948286;29;19927;-82
2022/06/11 11:48:04;;;;;;;;;;;22.70;83.70;;;;;;4908314;29;19926;-79
2022/06/11 11:50:42;;;;;;;;;;;22.90;83.70;;;;;;4948197;28;19931;-79
2022/06/11 11:53:22;;;;;;;;;;;23.00;82.90;;;;;;4940131;29;19931;-79
2022/06/11 11:55:55;;;;;;;;;;;23.20;82.40;;;;;;4934540;29;19926;-79
2022/06/11 11:58:36;;;;;;;;;;;23.30;82.10;;;;;;4949126;29;19930;-81
2022/06/11 12:01:06;;;;;;;;;;;23.20;82.10;;;;;;4928973;29;19926;-79
2022/06/11 12:03:42;;;;;;;;;;;23.10;81.10;;;;;;4932560;29;19935;-80
2022/06/11 12:06:16;;;;;;;;;;;23.20;81.90;;;;;;4913939;29;19930;-79
2022/06/11 12:08:54;;;;;;;;;;;23.30;81.80;;;;;;4937932;29;19944;-79
2022/06/11 12:11:28;;;;;;;;;;;23.40;81.60;;;;;;4940828;29;19932;-83
2022/06/11 12:14:02;;;;;;;;;;;23.50;81.90;;;;;;4937916;29;19937;-80
2022/06/11 12:16:36;;;;;;;;;;;23.10;81.40;;;;;;4922023;29;19945;-77
2022/06/11 12:19:30;;;;;;;;;;;23.50;81.20;;;;;;4959078;28;19930;-78
2022/06/11 12:22:02;;;;;;;;;;;23.50;82.20;;;;;;4936979;29;19937;-78
2022/06/11 12:24:37;;;;;;;;;;;23.70;81.20;;;;;;4921024;29;19941;-79
2022/06/11 12:27:13;;;;;;;;;;;23.90;81.20;;;;;;4922064;29;19942;-82
2022/06/11 12:29:49;;;;;;;;;;;24.10;81.00;;;;;;4940884;29;19976;-79
2022/06/11 12:32:21;;;;;;;;;;;24.10;79.50;;;;;;4922944;29;19937;-84
2022/06/11 12:34:52;;;;;;;;;;;24.10;80.10;;;;;;4939007;29;19934;-84
2022/06/11 12:37:20;;;;;;;;;;;24.30;80.00;;;;;;4939556;29;20475;-79
2022/06/11 12:39:53;;;;;;;;;;;24.30;79.30;;;;;;4937591;29;19934;-82
2022/06/11 12:42:30;;;;;;;;;;;24.00;79.20;;;;;;4906183;29;19937;-80
2022/06/11 12:45:19;;;;;;;;;;;24.00;79.40;;;;;;4919491;29;19933;-80
2022/06/11 12:47:52;;;;;;;;;;;23.90;78.80;;;;;;4937260;29;20393;-85
2022/06/11 12:50:42;;;;;;;;;;;24.00;79.70;;;;;;4939234;29;20008;-78
2022/06/11 12:53:29;;;;;;;;;;;24.00;78.10;;;;;;4930044;29;19931;-79
2022/06/11 12:59:25;;;;;;;;;;;24.10;78.00;;;;;;4921229;29;19922;-78
2022/06/11 13:02:12;;;;;;;;;;;24.10;78.70;;;;;;4906012;29;19927;-84
2022/06/11 13:04:58;;;;;;;;;;;24.70;79.40;;;;;;4941175;29;19938;-79
2022/06/11 13:07:48;;;;;;;;;;;24.50;78.10;;;;;;4939227;29;20601;-80
2022/06/11 13:10:34;;;;;;;;;;;24.80;78.20;;;;;;4936525;29;19927;-85
2022/06/11 13:13:14;;;;;;;;;;;24.70;78.40;;;;;;4934354;29;20199;-80
2022/06/11 13:16:03;;;;;;;;;;;24.60;79.20;;;;;;4949118;29;19934;-78
2022/06/11 13:18:38;;;;;;;;;;;24.60;76.60;;;;;;4915291;29;19935;-78
2022/06/11 13:21:16;;;;;;;;;;;24.50;76.80;;;;;;4930398;29;20199;-78
2022/06/11 13:24:11;;;;;;;;;;;24.30;76.80;;;;;;4913414;29;19931;-78
2022/06/11 13:26:55;;;;;;;;;;;24.10;77.80;;;;;;4913165;29;19927;-84
2022/06/11 13:29:49;;;;;;;;;;;24.50;78.20;;;;;;4926844;29;20469;-80
2022/06/11 13:32:24;;;;;;;;;;;24.20;78.80;;;;;;4929581;29;19928;-79
2022/06/11 13:35:07;;;;;;;;;;;24.30;78.40;;;;;;4930087;29;19945;-80
2022/06/11 13:37:54;;;;;;;;;;;24.50;78.80;;;;;;4905755;29;19938;-80
2022/06/11 13:40:36;;;;;;;;;;;24.60;78.50;;;;;;4924081;29;19927;-80
2022/06/11 13:43:04;;;;;;;;;;;24.80;77.90;;;;;;4939573;29;19941;-79
2022/06/11 13:45:34;;;;;;;;;;;25.10;76.90;;;;;;4940297;29;19931;-78
2022/06/11 13:48:15;;;;;;;;;;;25.80;76.40;;;;;;4907403;29;19935;-82
2022/06/11 13:50:52;;;;;;;;;;;25.60;76.20;;;;;;4927253;29;19931;-79
2022/06/11 13:56:33;;;;;;;;;;;26.40;74.80;;;;;;4938566;29;20023;-84
2022/06/11 13:59:01;;;;;;;;;;;26.80;73.80;;;;;;4930620;29;19927;-79
2022/06/11 14:01:28;;;;;;;;;;;27.10;73.40;;;;;;4924023;29;19938;-77
2022/06/11 14:04:06;;;;;;;;;;;27.30;71.90;;;;;;4911311;29;19934;-80
2022/06/11 14:06:40;;;;;;;;;;;27.30;70.10;;;;;;4907843;29;20829;-78
2022/06/11 14:12:29;;;;;;;;;;;27.10;70.10;;;;;;4939725;29;19934;-82
2022/06/11 14:15:31;;;;;;;;;;;28.20;71.50;;;;;;4925585;29;19927;-79
2022/06/11 14:18:26;;;;;;;;;;;27.00;68.70;;;;;;4938354;29;19934;-79
2022/06/11 14:21:27;;;;;;;;;;;27.00;69.60;;;;;;4922689;29;19933;-79
2022/06/11 14:23:55;;;;;;;;;;;26.90;70.30;;;;;;4938704;29;19935;-80
2022/06/11 14:26:29;;;;;;;;;;;26.90;70.70;;;;;;4937676;29;19934;-76
2022/06/11 14:29:03;;;;;;;;;;;27.10;71.10;;;;;;4923692;29;19926;-81
2022/06/11 14:32:09;;;;;;;;;;;27.30;71.40;;;;;;4942700;29;19937;-85
2022/06/11 14:34:40;;;;;;;;;;;27.10;71.30;;;;;;4927378;29;19941;-83
2022/06/11 14:37:17;;;;;;;;;;;27.20;70.90;;;;;;4943113;29;19934;-84
2022/06/11 14:39:48;;;;;;;;;;;26.90;70.70;;;;;;4944055;29;19931;-82
2022/06/11 14:42:20;;;;;;;;;;;26.40;71.80;;;;;;4926090;29;19937;-79
2022/06/11 14:45:10;;;;;;;;;;;26.10;71.30;;;;;;4924537;29;19931;-83
2022/06/11 14:47:53;;;;;;;;;;;26.20;71.20;;;;;;4902554;29;19931;-79
2022/06/11 14:50:38;;;;;;;;;;;26.70;71.40;;;;;;4941743;29;19935;-80
2022/06/11 14:53:36;;;;;;;;;;;26.60;71.30;;;;;;4927141;29;20277;-83
2022/06/11 14:56:14;;;;;;;;;;;26.80;71.60;;;;;;4942907;29;19931;-80
2022/06/11 14:58:55;;;;;;;;;;;26.80;71.50;;;;;;4924463;29;19927;-81
2022/06/11 15:01:42;;;;;;;;;;;26.60;71.70;;;;;;4939897;29;19927;-80
2022/06/11 15:04:23;;;;;;;;;;;26.40;72.00;;;;;;4940446;29;19938;-81
2022/06/11 15:07:13;;;;;;;;;;;26.40;72.80;;;;;;4910078;29;19935;-79
2022/06/11 15:09:57;;;;;;;;;;;26.20;72.70;;;;;;4924624;29;19933;-79
2022/06/11 15:12:41;;;;;;;;;;;25.90;73.10;;;;;;4941313;29;20403;-80
2022/06/11 15:15:14;;;;;;;;;;;25.50;72.90;;;;;;4927844;29;20128;-81